createdAt,value
2019-02-16T00:00:30.051Z,6.60
2019-02-16T00:02:58.681Z,6.60
2019-02-16T00:05:27.291Z,6.50
2019-02-16T00:07:55.856Z,6.40
2019-02-16T00:10:24.449Z,6.40
2019-02-16T00:12:53.066Z,6.30
2019-02-16T00:15:21.650Z,6.30
2019-02-16T00:17:50.283Z,6.30
2019-02-16T00:20:18.962Z,6.20
2019-02-16T00:22:47.556Z,6.20
2019-02-16T00:25:16.218Z,6.20
2019-02-16T00:27:44.787Z,6.20
2019-02-16T00:30:13.423Z,6.10
2019-02-16T00:32:42.067Z,6.20
2019-02-16T00:35:10.681Z,6.20
2019-02-16T00:37:39.280Z,6.20
2019-02-16T00:40:08.962Z,6.10
2019-02-16T00:42:37.657Z,6.10
2019-02-16T00:45:07.391Z,6.10
2019-02-16T00:47:35.988Z,6.10
2019-02-16T00:50:04.762Z,6.10
2019-02-16T00:52:33.358Z,6.00
2019-02-16T00:55:02.377Z,5.90
2019-02-16T00:57:30.952Z,5.90
2019-02-16T00:59:59.585Z,5.90
2019-02-16T01:02:28.164Z,5.90
2019-02-16T01:04:56.771Z,5.90
2019-02-16T01:07:25.362Z,5.90
2019-02-16T01:09:53.976Z,5.80
2019-02-16T01:12:22.675Z,5.80
2019-02-16T01:14:51.278Z,5.80
2019-02-16T01:17:19.862Z,5.80
2019-02-16T01:19:48.451Z,5.70
2019-02-16T01:22:18.682Z,5.70
2019-02-16T01:24:47.296Z,5.60
2019-02-16T01:27:15.882Z,5.70
2019-02-16T01:29:44.498Z,5.70
2019-02-16T01:32:13.069Z,5.70
2019-02-16T01:34:42.125Z,5.70
2019-02-16T01:37:10.658Z,5.60
2019-02-16T01:39:39.299Z,5.60
2019-02-16T01:42:07.893Z,5.60
2019-02-16T01:44:36.559Z,5.60
2019-02-16T01:47:06.745Z,5.60
2019-02-16T01:49:35.414Z,5.70
2019-02-16T01:52:04.057Z,5.70
2019-02-16T01:54:32.670Z,5.70
2019-02-16T01:57:01.359Z,5.70
2019-02-16T01:59:29.920Z,5.70
2019-02-16T02:01:58.494Z,5.70
2019-02-16T02:04:27.605Z,5.70
2019-02-16T02:06:56.169Z,5.70
2019-02-16T02:09:24.926Z,5.70
2019-02-16T02:11:53.615Z,5.70
2019-02-16T02:14:22.370Z,5.70
2019-02-16T02:16:50.940Z,5.60
2019-02-16T02:19:19.539Z,5.60
2019-02-16T02:21:48.153Z,5.70
2019-02-16T02:24:16.755Z,5.70
2019-02-16T02:26:45.364Z,5.60
2019-02-16T02:29:14.009Z,5.60
2019-02-16T02:31:42.714Z,5.60
2019-02-16T02:34:11.323Z,5.50
2019-02-16T02:36:39.902Z,5.50
2019-02-16T02:39:08.571Z,5.50
2019-02-16T02:41:37.211Z,5.50
2019-02-16T02:44:05.833Z,5.50
2019-02-16T02:46:34.404Z,5.50
2019-02-16T02:49:03.015Z,5.50
2019-02-16T02:51:31.651Z,5.60
2019-02-16T02:54:00.215Z,5.50
2019-02-16T02:56:28.879Z,5.40
2019-02-16T02:58:57.481Z,5.40
2019-02-16T03:01:26.161Z,5.30
2019-02-16T03:03:54.828Z,5.30
2019-02-16T03:06:24.015Z,5.20
2019-02-16T03:08:52.604Z,5.20
2019-02-16T03:11:21.188Z,5.10
2019-02-16T03:13:49.841Z,5.20
2019-02-16T03:16:18.451Z,5.10
2019-02-16T03:18:47.175Z,5.10
2019-02-16T03:21:15.761Z,5.10
2019-02-16T03:23:44.644Z,5.10
2019-02-16T03:26:28.441Z,5.00
2019-02-16T03:29:02.918Z,5.00
2019-02-16T03:32:03.677Z,5.00
2019-02-16T03:34:56.977Z,5.00
2019-02-16T03:38:01.765Z,5.00
2019-02-16T03:40:30.386Z,5.00
2019-02-16T03:42:59.063Z,5.00
2019-02-16T03:45:27.700Z,5.00
2019-02-16T03:47:56.322Z,4.90
2019-02-16T03:50:24.961Z,4.90
2019-02-16T03:52:54.054Z,5.70
2019-02-16T03:55:23.083Z,4.80
2019-02-16T03:57:51.723Z,4.90
2019-02-16T04:00:20.446Z,4.90
2019-02-16T04:02:49.003Z,4.80
2019-02-16T04:05:17.679Z,4.80
2019-02-16T04:07:46.287Z,4.80
2019-02-16T04:10:15.329Z,4.70
2019-02-16T04:12:43.865Z,4.70
2019-02-16T04:15:12.979Z,4.70
2019-02-16T04:17:42.817Z,4.60
2019-02-16T04:20:11.793Z,4.60
2019-02-16T04:22:40.370Z,4.50
2019-02-16T04:25:09.015Z,5.30
2019-02-16T04:27:37.622Z,4.40
2019-02-16T04:30:07.997Z,4.50
2019-02-16T04:32:36.609Z,4.40
2019-02-16T04:35:05.960Z,4.40
2019-02-16T04:37:34.957Z,4.30
2019-02-16T04:40:03.680Z,4.30
2019-02-16T04:42:32.273Z,4.40
2019-02-16T04:45:00.860Z,4.40
2019-02-16T04:47:29.467Z,4.30
2019-02-16T04:49:58.047Z,4.30
2019-02-16T04:52:34.417Z,4.30
2019-02-16T04:54:56.910Z,4.40
2019-02-16T04:57:25.492Z,4.40
2019-02-16T04:59:54.158Z,4.30
2019-02-16T05:02:22.834Z,4.30
2019-02-16T05:04:51.415Z,4.30
2019-02-16T05:07:20.189Z,4.30
2019-02-16T05:09:48.761Z,4.40
2019-02-16T05:12:17.383Z,4.30
2019-02-16T05:14:45.950Z,4.30
2019-02-16T05:17:14.577Z,4.30
2019-02-16T05:19:44.801Z,4.30
2019-02-16T05:22:13.451Z,4.30
2019-02-16T05:24:42.049Z,4.30
2019-02-16T05:27:10.628Z,4.20
2019-02-16T05:29:39.211Z,4.20
2019-02-16T05:32:07.884Z,4.20
2019-02-16T05:34:36.804Z,4.20
2019-02-16T05:37:05.394Z,4.20
2019-02-16T05:39:33.968Z,4.30
2019-02-16T05:42:02.606Z,4.30
2019-02-16T05:44:31.254Z,4.30
2019-02-16T05:46:59.863Z,4.30
2019-02-16T05:49:28.482Z,4.30
2019-02-16T05:51:57.041Z,4.20
2019-02-16T05:54:26.002Z,4.20
2019-02-16T05:56:54.586Z,4.20
2019-02-16T05:59:23.191Z,4.20
2019-02-16T06:01:54.241Z,4.10
2019-02-16T06:04:22.815Z,4.10
2019-02-16T06:06:51.410Z,4.10
2019-02-16T06:09:20.024Z,4.10
2019-02-16T06:11:48.603Z,4.00
2019-02-16T06:14:17.204Z,3.90
2019-02-16T06:16:45.797Z,3.90
2019-02-16T06:19:14.402Z,3.80
2019-02-16T06:21:42.980Z,3.80
2019-02-16T06:24:11.572Z,3.80
2019-02-16T06:26:40.568Z,3.80
2019-02-16T06:29:09.178Z,3.80
2019-02-16T06:31:37.838Z,3.80
2019-02-16T06:34:06.439Z,3.80
2019-02-16T06:36:36.400Z,3.90
2019-02-16T06:39:06.052Z,3.90
2019-02-16T06:41:34.604Z,3.90
2019-02-16T06:44:03.205Z,3.90
2019-02-16T06:46:32.217Z,3.90
2019-02-16T06:49:00.816Z,4.00
2019-02-16T06:51:29.411Z,4.00
2019-02-16T06:53:58.038Z,4.10
2019-02-16T06:56:28.269Z,4.10
2019-02-16T06:58:56.897Z,4.10
2019-02-16T07:01:25.465Z,4.10
2019-02-16T07:03:54.087Z,4.10
2019-02-16T07:06:22.673Z,4.10
2019-02-16T07:08:51.825Z,4.10
2019-02-16T07:11:20.421Z,4.10
2019-02-16T07:13:48.981Z,4.10
2019-02-16T07:16:35.178Z,4.20
2019-02-16T07:19:07.951Z,4.10
2019-02-16T07:21:36.544Z,4.20
2019-02-16T07:24:05.122Z,4.20
2019-02-16T07:26:33.724Z,4.20
2019-02-16T07:29:02.780Z,4.30
2019-02-16T07:31:31.390Z,4.40
2019-02-16T07:33:59.963Z,4.40
2019-02-16T07:36:28.630Z,4.50
2019-02-16T07:38:57.557Z,4.50
2019-02-16T07:41:26.170Z,4.50
2019-02-16T07:43:59.102Z,4.60
2019-02-16T07:46:38.140Z,4.70
2019-02-16T07:49:08.368Z,4.70
2019-02-16T07:51:56.985Z,4.80
2019-02-16T07:54:32.861Z,4.80
2019-02-16T07:57:03.166Z,4.90
2019-02-16T07:59:49.709Z,5.00
2019-02-16T08:02:20.073Z,5.00
2019-02-16T08:05:02.245Z,5.10
2019-02-16T08:07:42.856Z,5.10
2019-02-16T08:10:29.412Z,5.20
2019-02-16T08:13:05.538Z,5.30
2019-02-16T08:15:38.574Z,5.40
2019-02-16T08:18:25.526Z,5.50
2019-02-16T08:21:01.460Z,5.60
2019-02-16T08:23:47.654Z,5.70
2019-02-16T08:26:17.927Z,5.90
2019-02-16T08:29:04.257Z,6.30
2019-02-16T08:31:34.543Z,7.00
2019-02-16T08:34:04.765Z,8.10
2019-02-16T08:36:35.016Z,9.20
2019-02-16T08:39:14.435Z,10.50
2019-02-16T08:41:56.760Z,11.80
2019-02-16T08:44:29.844Z,12.60
2019-02-16T08:47:03.163Z,13.20
2019-02-16T08:49:33.387Z,13.70
2019-02-16T08:52:03.753Z,14.50
2019-02-16T08:54:52.055Z,14.70
2019-02-16T08:57:28.186Z,15.70
2019-02-16T09:00:14.594Z,15.10
2019-02-16T09:02:51.204Z,15.40
2019-02-16T09:05:38.122Z,15.70
2019-02-16T09:08:17.458Z,15.60
2019-02-16T09:10:56.952Z,15.50
2019-02-16T09:13:30.116Z,15.50
2019-02-16T09:16:06.257Z,15.40
2019-02-16T09:18:42.667Z,15.50
2019-02-16T09:21:29.755Z,15.70
2019-02-16T09:24:02.544Z,15.70
2019-02-16T09:26:35.549Z,15.60
2019-02-16T09:29:05.888Z,15.90
2019-02-16T09:31:36.115Z,16.00
2019-02-16T09:34:06.517Z,16.00
2019-02-16T09:36:48.495Z,16.40
2019-02-16T09:39:21.799Z,16.00
2019-02-16T09:42:00.791Z,15.90
2019-02-16T09:44:31.012Z,16.20
2019-02-16T09:47:01.734Z,16.50
2019-02-16T09:49:31.990Z,16.60
2019-02-16T09:52:07.725Z,16.70
2019-02-16T09:54:43.897Z,16.90
2019-02-16T09:57:23.170Z,16.70
2019-02-16T10:00:13.949Z,17.10
2019-02-16T10:02:46.635Z,16.80
2019-02-16T10:05:33.632Z,17.30
2019-02-16T10:08:13.149Z,17.30
2019-02-16T10:10:43.399Z,17.80
2019-02-16T10:13:13.626Z,18.10
2019-02-16T10:15:44.069Z,18.20
2019-02-16T10:18:17.122Z,18.30
2019-02-16T10:20:47.446Z,18.70
2019-02-16T10:23:20.133Z,19.00
2019-02-16T10:25:54.962Z,19.30
2019-02-16T10:28:25.042Z,19.40
2019-02-16T10:31:11.517Z,19.50
2019-02-16T10:33:50.582Z,19.20
2019-02-16T10:36:20.870Z,19.40
2019-02-16T10:38:59.963Z,19.40
2019-02-16T10:41:30.829Z,19.40
2019-02-16T10:44:03.783Z,19.40
2019-02-16T10:46:40.655Z,19.80
2019-02-16T10:49:13.528Z,20.10
2019-02-16T10:51:46.261Z,20.50
2019-02-16T10:54:28.157Z,20.60
2019-02-16T10:57:00.157Z,20.30
2019-02-16T10:59:46.659Z,20.70
2019-02-16T11:02:31.981Z,20.70
2019-02-16T11:05:02.280Z,20.80
2019-02-16T11:07:35.258Z,20.70
2019-02-16T11:10:08.069Z,20.80
2019-02-16T11:12:53.074Z,20.90
2019-02-16T11:15:26.034Z,21.40
2019-02-16T11:17:59.067Z,21.60
2019-02-16T11:20:38.411Z,21.70
2019-02-16T11:23:17.237Z,21.40
2019-02-16T11:25:50.835Z,21.30
2019-02-16T11:28:21.082Z,20.70
2019-02-16T11:31:06.813Z,20.70
2019-02-16T11:33:42.983Z,21.00
2019-02-16T11:36:13.221Z,21.20
2019-02-16T11:38:43.695Z,21.50
2019-02-16T11:41:28.820Z,21.60
2019-02-16T11:43:59.092Z,21.80
2019-02-16T11:46:32.001Z,22.20
2019-02-16T11:49:09.300Z,22.30
2019-02-16T11:51:46.024Z,22.30
2019-02-16T11:54:22.055Z,22.80
2019-02-16T11:56:52.820Z,22.60
2019-02-16T11:59:34.965Z,23.00
2019-02-16T12:02:05.221Z,23.30
2019-02-16T12:04:41.555Z,23.20
2019-02-16T12:07:14.841Z,23.30
2019-02-16T12:09:45.661Z,22.50
2019-02-16T12:12:15.940Z,21.50
2019-02-16T12:14:55.043Z,21.40
2019-02-16T12:17:25.308Z,21.30
2019-02-16T12:20:07.194Z,21.20
2019-02-16T12:22:49.408Z,21.50
2019-02-16T12:25:36.382Z,21.10
2019-02-16T12:28:08.999Z,21.30
2019-02-16T12:30:42.568Z,21.60
2019-02-16T12:33:18.973Z,22.20
2019-02-16T12:35:49.204Z,22.60
2019-02-16T12:38:23.804Z,23.20
2019-02-16T12:41:12.045Z,22.90
2019-02-16T12:43:48.250Z,21.80
2019-02-16T12:46:18.525Z,21.40
2019-02-16T12:48:48.758Z,21.30
2019-02-16T12:51:25.248Z,21.30
2019-02-16T12:53:55.660Z,21.70
2019-02-16T12:56:25.904Z,22.60
2019-02-16T12:58:56.119Z,23.00
2019-02-16T13:01:29.432Z,22.80
2019-02-16T13:03:59.794Z,22.00
2019-02-16T13:06:30.797Z,22.00
2019-02-16T13:09:16.161Z,22.20
2019-02-16T13:11:52.397Z,22.30
2019-02-16T13:14:39.141Z,21.90
2019-02-16T13:17:25.504Z,21.60
2019-02-16T13:20:04.906Z,22.10
2019-02-16T13:22:35.131Z,21.80
2019-02-16T13:25:05.797Z,21.30
2019-02-16T13:27:47.671Z,21.60
2019-02-16T13:30:20.790Z,22.00
2019-02-16T13:32:54.008Z,22.50
2019-02-16T13:35:24.263Z,22.90
2019-02-16T13:37:54.480Z,22.90
2019-02-16T13:40:24.787Z,22.90
2019-02-16T13:42:55.150Z,22.50
2019-02-16T13:45:31.352Z,22.30
2019-02-16T13:48:04.524Z,22.10
2019-02-16T13:50:34.792Z,21.50
2019-02-16T13:53:05.046Z,21.50
2019-02-16T13:55:43.970Z,21.40
2019-02-16T13:58:14.198Z,22.00
2019-02-16T14:00:47.435Z,22.50
2019-02-16T14:03:29.287Z,22.30
2019-02-16T14:05:59.598Z,21.60
2019-02-16T14:08:29.822Z,21.20
2019-02-16T14:11:18.399Z,21.80
2019-02-16T14:14:03.932Z,21.70
2019-02-16T14:16:34.204Z,21.50
2019-02-16T14:19:02.796Z,21.70
2019-02-16T14:21:31.408Z,21.90
2019-02-16T14:23:59.999Z,21.60
2019-02-16T14:26:28.648Z,21.00
2019-02-16T14:28:57.255Z,21.10
2019-02-16T14:31:28.500Z,21.60
2019-02-16T14:33:57.508Z,21.90
2019-02-16T14:36:26.799Z,22.00
2019-02-16T14:38:57.533Z,22.90
2019-02-16T14:41:26.171Z,23.50
2019-02-16T14:43:54.850Z,24.50
2019-02-16T14:46:23.741Z,24.00
2019-02-16T14:48:52.769Z,23.10
2019-02-16T14:51:21.365Z,22.30
2019-02-16T14:53:49.983Z,21.20
2019-02-16T14:56:18.984Z,20.90
2019-02-16T14:58:47.837Z,20.40
2019-02-16T15:01:16.479Z,19.90
2019-02-16T15:03:45.122Z,19.60
2019-02-16T15:06:13.713Z,19.10
2019-02-16T15:08:42.339Z,19.00
2019-02-16T15:11:11.297Z,18.80
2019-02-16T15:13:40.241Z,18.70
2019-02-16T15:16:08.842Z,18.60
2019-02-16T15:18:37.451Z,18.50
2019-02-16T15:21:06.045Z,18.40
2019-02-16T15:23:34.671Z,18.30
2019-02-16T15:26:04.626Z,18.10
2019-02-16T15:28:33.339Z,18.00
2019-02-16T15:31:01.922Z,17.90
2019-02-16T15:33:30.553Z,17.80
2019-02-16T15:35:59.158Z,17.90
2019-02-16T15:38:27.751Z,17.80
2019-02-16T15:40:56.366Z,17.70
2019-02-16T15:43:25.445Z,18.00
2019-02-16T15:45:54.016Z,18.40
2019-02-16T15:48:22.631Z,18.90
2019-02-16T15:50:51.327Z,19.50
2019-02-16T15:53:19.887Z,19.70
2019-02-16T15:55:48.850Z,19.80
2019-02-16T15:58:17.490Z,19.80
2019-02-16T16:00:46.087Z,19.70
2019-02-16T16:03:14.638Z,19.50
2019-02-16T16:05:45.116Z,19.10
2019-02-16T16:08:27.552Z,18.80
2019-02-16T16:10:57.837Z,18.40
2019-02-16T16:13:44.943Z,18.10
2019-02-16T16:16:15.234Z,17.90
2019-02-16T16:19:01.371Z,17.50
2019-02-16T16:21:48.171Z,17.30
2019-02-16T16:24:32.480Z,17.00
2019-02-16T16:27:14.230Z,16.80
2019-02-16T16:29:44.486Z,16.60
2019-02-16T16:32:14.771Z,16.50
2019-02-16T16:34:45.055Z,16.40
2019-02-16T16:37:33.609Z,16.30
2019-02-16T16:40:27.712Z,16.10
2019-02-16T16:43:12.936Z,16.00
2019-02-16T16:45:48.926Z,15.80
2019-02-16T16:48:28.812Z,15.70
2019-02-16T16:50:59.050Z,15.50
2019-02-16T16:53:32.024Z,15.40
2019-02-16T16:56:02.395Z,15.30
2019-02-16T16:58:35.131Z,15.20
2019-02-16T17:01:06.465Z,15.10
2019-02-16T17:03:53.196Z,15.10
2019-02-16T17:06:26.514Z,15.10
2019-02-16T17:09:12.489Z,14.90
2019-02-16T17:11:45.526Z,14.80
2019-02-16T17:14:30.797Z,14.70
2019-02-16T17:17:06.780Z,14.70
2019-02-16T17:19:43.058Z,14.60
2019-02-16T17:22:16.077Z,14.50
2019-02-16T17:24:46.662Z,14.40
2019-02-16T17:27:19.410Z,14.30
2019-02-16T17:30:05.701Z,14.20
2019-02-16T17:32:38.489Z,14.10
2019-02-16T17:35:17.787Z,14.00
2019-02-16T17:37:49.294Z,14.00
2019-02-16T17:40:37.677Z,14.00
2019-02-16T17:43:19.767Z,13.90
2019-02-16T17:46:08.236Z,14.00
2019-02-16T17:48:41.503Z,14.00
2019-02-16T17:51:11.750Z,14.00
2019-02-16T17:53:46.626Z,13.90
2019-02-16T17:56:33.402Z,13.70
2019-02-16T17:59:09.508Z,13.10
2019-02-16T18:01:51.775Z,13.60
2019-02-16T18:04:24.315Z,13.60
2019-02-16T18:07:00.097Z,13.50
2019-02-16T18:09:30.330Z,13.50
2019-02-16T18:12:16.007Z,13.40
2019-02-16T18:14:52.219Z,13.30
2019-02-16T18:17:25.706Z,13.30
2019-02-16T18:19:59.767Z,13.30
2019-02-16T18:22:30.258Z,13.30
2019-02-16T18:25:03.306Z,13.20
2019-02-16T18:27:36.910Z,13.10
2019-02-16T18:30:17.542Z,13.00
2019-02-16T18:32:57.337Z,12.90
2019-02-16T18:35:42.370Z,12.90
2019-02-16T18:38:12.744Z,12.80
2019-02-16T18:40:51.847Z,12.80
2019-02-16T18:43:28.434Z,12.70
2019-02-16T18:46:17.173Z,12.60
2019-02-16T18:48:47.458Z,12.60
2019-02-16T18:51:20.320Z,12.60
2019-02-16T18:53:53.760Z,12.50
2019-02-16T18:56:41.103Z,12.50
2019-02-16T18:59:29.402Z,13.00
2019-02-16T19:01:59.666Z,12.40
2019-02-16T19:04:32.696Z,12.40
2019-02-16T19:07:02.948Z,12.30
2019-02-16T19:09:35.622Z,12.30
2019-02-16T19:12:17.781Z,12.20
2019-02-16T19:15:04.272Z,12.10
2019-02-16T19:17:46.610Z,12.10
2019-02-16T19:20:16.863Z,12.10
2019-02-16T19:23:03.694Z,12.00
2019-02-16T19:25:40.101Z,12.00
2019-02-16T19:28:10.349Z,12.00
2019-02-16T19:30:43.494Z,11.90
2019-02-16T19:33:28.773Z,11.90
2019-02-16T19:36:08.134Z,11.80
2019-02-16T19:38:54.658Z,11.70
2019-02-16T19:41:24.882Z,11.60
2019-02-16T19:43:55.138Z,11.40
2019-02-16T19:46:31.049Z,11.30
2019-02-16T19:49:01.338Z,11.20
2019-02-16T19:51:31.882Z,11.10
2019-02-16T19:54:02.214Z,11.10
2019-02-16T19:56:32.444Z,11.00
2019-02-16T19:59:11.607Z,11.00
2019-02-16T20:01:50.432Z,10.90
2019-02-16T20:04:21.027Z,10.80
2019-02-16T20:06:51.238Z,10.80
2019-02-16T20:09:21.504Z,10.80
2019-02-16T20:12:07.749Z,10.70
2019-02-16T20:14:43.767Z,10.60
2019-02-16T20:17:16.969Z,10.50
2019-02-16T20:19:56.412Z,10.40
2019-02-16T20:22:34.375Z,10.40
2019-02-16T20:25:07.664Z,10.30
2019-02-16T20:27:38.003Z,10.30
2019-02-16T20:30:19.705Z,10.20
2019-02-16T20:33:05.044Z,10.10
2019-02-16T20:35:41.322Z,10.00
2019-02-16T20:38:17.177Z,10.00
2019-02-16T20:40:53.507Z,10.00
2019-02-16T20:43:23.744Z,9.90
2019-02-16T20:46:09.226Z,9.70
2019-02-16T20:48:48.640Z,9.60
2019-02-16T20:51:35.640Z,9.50
2019-02-16T20:54:09.006Z,9.40
2019-02-16T20:56:39.342Z,9.20
2019-02-16T20:59:12.426Z,9.20
2019-02-16T21:01:54.634Z,9.20
2019-02-16T21:04:33.663Z,9.20
2019-02-16T21:07:09.436Z,9.10
2019-02-16T21:09:42.288Z,9.00
2019-02-16T21:12:21.662Z,9.00
2019-02-16T21:14:54.676Z,9.00
2019-02-16T21:17:30.406Z,8.90
2019-02-16T21:20:07.283Z,8.90
2019-02-16T21:22:37.471Z,8.90
2019-02-16T21:25:08.471Z,8.90
2019-02-16T21:27:39.234Z,8.90
2019-02-16T21:30:17.221Z,8.80
2019-02-16T21:32:53.068Z,8.70
2019-02-16T21:35:23.324Z,8.50
2019-02-16T21:37:53.539Z,8.40
2019-02-16T21:40:32.942Z,8.40
2019-02-16T21:43:03.182Z,8.40
2019-02-16T21:45:39.914Z,8.30
2019-02-16T21:48:10.159Z,8.40
2019-02-16T21:50:43.951Z,8.40
2019-02-16T21:53:21.474Z,8.40
2019-02-16T21:55:57.647Z,8.40
2019-02-16T21:58:27.940Z,8.40
2019-02-16T22:00:58.177Z,8.50
2019-02-16T22:03:28.773Z,8.50
2019-02-16T22:05:59.007Z,8.50
2019-02-16T22:08:32.304Z,8.50
2019-02-16T22:11:18.963Z,8.40
2019-02-16T22:13:47.540Z,8.30
2019-02-16T22:16:16.161Z,8.40
2019-02-16T22:18:45.306Z,8.20
2019-02-16T22:21:13.968Z,8.00
2019-02-16T22:23:44.239Z,7.90
2019-02-16T22:26:12.879Z,7.90
2019-02-16T22:28:41.466Z,7.90
2019-02-16T22:31:10.135Z,7.90
2019-02-16T22:33:38.835Z,8.00
2019-02-16T22:36:07.939Z,7.70
2019-02-16T22:38:36.569Z,7.50
2019-02-16T22:41:05.241Z,7.50
2019-02-16T22:43:33.838Z,7.40
2019-02-16T22:46:02.451Z,7.30
2019-02-16T22:48:31.058Z,7.30
2019-02-16T22:50:59.749Z,7.20
2019-02-16T22:53:28.487Z,7.00
2019-02-16T22:55:57.089Z,7.00
2019-02-16T22:58:28.781Z,7.00
2019-02-16T23:00:56.926Z,7.00
2019-02-16T23:03:25.670Z,6.80
2019-02-16T23:05:54.577Z,6.80
2019-02-16T23:08:23.205Z,5.80
2019-02-16T23:10:51.839Z,6.90
2019-02-16T23:13:20.458Z,6.80
2019-02-16T23:15:49.045Z,6.60
2019-02-16T23:18:17.643Z,6.40
2019-02-16T23:20:47.732Z,6.50
2019-02-16T23:23:16.700Z,8.10
2019-02-16T23:25:45.363Z,6.90
2019-02-16T23:28:14.054Z,7.10
2019-02-16T23:30:42.634Z,7.10
2019-02-16T23:33:11.234Z,7.10
2019-02-16T23:35:39.799Z,7.20
2019-02-16T23:38:08.414Z,7.30
2019-02-16T23:40:36.999Z,7.30
2019-02-16T23:43:05.737Z,7.30
2019-02-16T23:45:34.343Z,7.30
2019-02-16T23:48:03.044Z,7.30
2019-02-16T23:50:31.601Z,7.20
2019-02-16T23:53:00.195Z,7.20
2019-02-16T23:55:29.128Z,7.20
2019-02-16T23:57:57.822Z,7.20
